Aviation Meteorology - National Center of Meteorology
Email: forecaster@adiamet.gov.ae
Website: www.avmet.ae

GULF METAR
METAR OMAA 190600Z 17008KT 3500 DU NSC 38/20 Q1003 BECMG 5000=
METAR OMAD 190600Z 14008KT 110V180 3000 DU NSC 38/21 Q1003 NOSIG=
METAR OMAL 190600Z 15013KT 7000 NSC 36/19 Q1006 NOSIG=
METAR OMDB 190600Z 15012KT 100V200 7000 NSC 37/22 Q1004 NOSIG=
METAR OMDW 190600Z 16014KT 5000 DU NSC 38/14 Q1004 NOSIG=
METAR OMSJ 190600Z 14014KT CAVOK 38/21 Q1004 NOSIG=
METAR OMRK 190600Z 12016KT 8000 NSC 38/19 Q1004 A2966=
METAR OMFJ 190600Z 12009KT 7000 FEW020 32/24 Q1006 A2972=
METAR OMAW 190600Z 15011KT 4900 HZ SKC 40/17 Q1003 A2964=
METAR OMAM 190600Z 16010KT 4000 DU NSC 38/19 Q1004 A2966=
METAR OMLW 190600Z 15011KT 4000 DU SKC 36/23 Q1004 A2965=
METAR OMDM 190600Z 14011KT 6000 SKC 39/15 Q1004 A2965=
METAR OMAH 190600Z 33007KT 310V010 6000 SKC 36/29 Q1004 A2965=
METAR OMDL 190600Z 04006KT 360V060 7000 SKC 36/30 Q1003 A2963=
METAR OTBD 190600Z AUTO 02006KT 330V050 CAVOK 35/26 Q1003 NOSIG=
METAR OTHH 190600Z 01007KT 320V070 CAVOK 34/25 Q1003 NOSIG=
METAR OBBI 190600Z 02007KT 310V030 CAVOK 36/25 Q1003 NOSIG=
METAR OOMS 190550Z 02007KT 350V050 CAVOK 31/25 Q1005 NOSIG=
METAR OOSA 190550Z 20007KT 7000 FEW007 BKN010 OVC018 26/25 Q1007 NOSIG=
METAR OKBK 190600Z 30005KT 6000 SKC 40/10 Q1004 NOSIG=
 
GULF TAF
TAF OMAA 190500Z 1906/2012 16012KT 4000 DU NSC BECMG 1907/1909 8000 NSW BECMG 1909/1911 33013KT BECMG 1918/1920 05008KT BECMG 2000/2002 15012KT PROB40 TEMPO 2003/2007 4000 DU BECMG 2010/2012 32010KT=
TAF OMAD 190500Z 1906/2012 15009KT 8000 NSC PROB30 TEMPO 1906/1908 4000 DU BECMG 1909/1911 33011KT BECMG 1917/1919 05007KT BECMG 2000/2002 15010KT PROB40 TEMPO 2003/2006 4000 DU BECMG 2009/2011 32009KT=
TAF OMAL 190500Z 1906/2012 16012KT 8000 NSC BECMG 1911/1913 34009KT PROB30 TEMPO 1912/1915 VRB15G25KT 4000 BLDU FEW045TCU BECMG 1915/1917 08008KT BECMG 1922/2000 16012KT PROB30 TEMPO 2003/2006 4000 DU BECMG 2010/2012 33008KT=
TAF OMDB 190458Z 1906/2012 15010KT CAVOK BECMG 1909/1911 33014KT BECMG 1915/1917 08007KT BECMG 2003/2005 18010KT BECMG 2008/2010 33012KT=
TAF OMDW 190458Z 1906/2012 17014KT 7000 NSC PROB30 TEMPO 1906/1915 3000 BLDU BECMG 1910/1912 34015KT BECMG 1915/1917 08005KT BECMG 2002/2004 18012KT PROB30 TEMPO 2003/2007 4000 DU BECMG 2010/2012 34012KT=
TAF OMSJ 190458Z 1906/2012 15012KT CAVOK BECMG 1909/1911 34013KT BECMG 1915/1917 08007KT BECMG 2003/2005 18010KT BECMG 2008/2010 33012KT=
TAF OMRK 190458Z 1906/2012 12008KT CAVOK BECMG 1909/1911 35012KT BECMG 1914/1916 08007KT BECMG 2008/2010 35010KT=
TAF OMFJ 190500Z 1906/2012 09010KT 7000 NSC BECMG 1914/1916 15005KT BECMG 1920/1922 VRB03KT TEMPO 1922/2004 5000 HZ SCT016 BECMG 2005/2007 10010KT=
TAF OMAM 182325Z 1900/2006 31005KT 7000 NSC BECMG 1901/1903 14010KT PROB30 TEMPO 1904/1909 15018KT 4000 DU BECMG 1910/1912 33015KT BECMG 1918/1920 03005KT=
TAF OMLW 182325Z 1900/2006 36005KT 7000 NSC BECMG 1903/1905 15010KT BECMG 1910/1912 34015KT PROB30 TEMPO 1911/1915 VRB20G30KT 2000 SHRA BLDU FEW040CB BECMG 1918/1920 04005KT=
TAF OMDM 182325Z 1900/2006 15013KT 8000 NSC PROB30 TEMPO 1903/1806 4000 DU BECMG 1910/1912 34015KT PROB30 TEMPO 1911/1914 4000 DU BECMG 1917/1919 05005KT BECMG 2001/2003 17010KT=
TAF OTBD 190505Z 1906/2012 36008KT 7000 NSC TEMPO 1907/1915 06012KT=
TAF OTHH 190505Z 1906/2012 36008KT 7000 NSC TEMPO 1907/1915 06012KT=
TAF OBBI 190500Z 1906/2012 35010KT CAVOK BECMG 1917/1919 VRB05KT=
TAF OOMS 190500Z 1906/2012 06015KT 8000 NSC BECMG 1915/1917 VRB02KT PROB30 TEMPO 1918/2003 4000 BR BECMG 2005/2007 05014KT=
TAF OOSA 190500Z 1906/2012 19006KT 6000 FEW010 BKN014 OVC020 BECMG 1916/1918 VRB03KT BECMG 2000/2002 4000 -DZ SCT008 BKN010 OVC018 BECMG 2007/2009 19007KT 7000 NSW FEW010 BKN014 OVC020=
TAF OKBK 190445Z 1906/2012 35008G18KT 7000 SKC TEMPO 1906/1909 VRB03KT 4000 HZ =
 
Information made available by Abu Dhabi International Airport - Aviation Meteorology (NCM)
Printed on:19/08/2019-0655UTC


D:\Input Parser\Destinations\Final\05\OMAAL0612050095314160.txt
TAF OMAA 190500Z 1906/2012 16012KT 4000 DU NSC BECMG 1907/1909 8000 NSW BECMG 1909/1911 33013KT BECMG 1918/1920 05008KT BECMG 2000/2002 15012KT PROB40 TEMPO 2003/2007 4000 DU BECMG 2010/2012 32010KT=

D:\Input Parser\Destinations\Final\05\OMADL06120500428211209.txt
TAF OMAD 190500Z 1906/2012 15009KT 8000 NSC PROB30 TEMPO 1906/1908 4000 DU BECMG 1909/1911 33011KT BECMG 1917/1919 05007KT BECMG 2000/2002 15010KT PROB40 TEMPO 2003/2006 4000 DU BECMG 2009/2011 32009KT=

D:\Input Parser\Destinations\Final\05\OMALL06120500408914603.txt
TAF OMAL 190500Z 1906/2012 16012KT 8000 NSC BECMG 1911/1913 34009KT PROB30 TEMPO 1912/1915 VRB15G25KT 4000 BLDU FEW045TCU BECMG 1915/1917 08008KT BECMG 1922/2000 16012KT PROB30 TEMPO 2003/2006 4000 DU BECMG 2010/2012 33008KT=

D:\Input Parser\Destinations\Final\04\OMDBL06120458981699120.txt
TAF OMDB 190458Z 1906/2012 15010KT CAVOK BECMG 1909/1911 33014KT BECMG 1915/1917 08007KT BECMG 2003/2005 18010KT BECMG 2008/2010 33012KT=

D:\Input Parser\Destinations\Final\04\OMDWL06120458406538395.txt
TAF OMDW 190458Z 1906/2012 17014KT 7000 NSC PROB30 TEMPO 1906/1915 3000 BLDU BECMG 1910/1912 34015KT BECMG 1915/1917 08005KT BECMG 2002/2004 18012KT PROB30 TEMPO 2003/2007 4000 DU BECMG 2010/2012 34012KT=

D:\Input Parser\Destinations\Final\04\OMSJL0612045848789605.txt
TAF OMSJ 190458Z 1906/2012 15012KT CAVOK BECMG 1909/1911 34013KT BECMG 1915/1917 08007KT BECMG 2003/2005 18010KT BECMG 2008/2010 33012KT=

D:\Input Parser\Destinations\Final\04\OMRKL06120458734223674.txt
TAF OMRK 190458Z 1906/2012 12008KT CAVOK BECMG 1909/1911 35012KT BECMG 1914/1916 08007KT BECMG 2008/2010 35010KT=

D:\Input Parser\Destinations\Final\05\OMFJL061205001010319467.txt
TAF OMFJ 190500Z 1906/2012 09010KT 7000 NSC BECMG 1914/1916 15005KT BECMG 1920/1922 VRB03KT TEMPO 1922/2004 5000 HZ SCT016 BECMG 2005/2007 10010KT=